Terminal Aerodrome Forecast
Issued by NWS

Home | Current Version | Previous Version | Text Only | Print | Product List | Glossary On
Versions: 1 2 3 4 5 6 7 8 9 10 11 12 13 14 15 16 17 18 19 20 21 22 23 24 25 26 27 28 29 30 31 32 33 34 35 36 37 38 39 40 41 42 43 44 45 46 47 48
600
FTAK31 PANC 090539
TAFADQ
TAF
PADQ 090539Z 0906/1006 34010KT 6SM -SHRA OVC015
      TEMPO 0906/0910 3SM -RA BR BKN005
     FM091000 02010KT 4SM -RA BR BKN005 BKN015
     FM091800 09010KT 5SM -RA OVC012
     FM100000 09015KT 5SM -RA OVC012=

USA.gov is the U.S. government's official web portal to all federal, state and local government web resources and services.